METAR Data
IDs: Format: Raw Decoded Include TAF

Data at: 1519 UTC 21 Sep 2018

KRWI 211453Z AUTO 13003KT 10SM BKN055 25/17 A3025 RMK AO2 SLP242 T02500167 50001
KRWI 211353Z AUTO 06003KT 10SM BKN046 BKN070 23/19 A3026 RMK AO2 SLP246 T02330189
KRWI 211253Z AUTO 00000KT 10SM SCT050 22/19 A3026 RMK AO2 SLP245 T02170194
KRWI 211153Z AUTO 00000KT 8SM OVC055 20/19 A3025 RMK AO2 SLP242 T02000194 10200 20172 51013
KRWI 211059Z AUTO 00000KT 3SM BR FEW049 18/18 A3023 RMK AO2 T01780178
KRWI 211053Z AUTO 00000KT 1 1/4SM BR CLR 18/18 A3023 RMK AO2 VIS 1/2V3 SLP236 T01780178
KRWI 211049Z AUTO 00000KT 3/4SM BR CLR 18/17 A3024 RMK AO2 VIS 1/2V2
KRWI 211023Z AUTO 00000KT 1 3/4SM BR CLR 18/18 A3022 RMK AO2 VIS 3/4V3 T01780178
KRWI 210953Z AUTO 00000KT 7SM CLR 18/18 A3021 RMK AO2 SLP229 T01830183
KRWI 210853Z AUTO 00000KT 6SM BR FEW050 FEW070 18/18 A3021 RMK AO2 SLP227 T01830183 55001
KRWI 210753Z AUTO 00000KT 4SM BR CLR 18/18 A3020 RMK AO2 SLP226 T01830183
KRWI 210653Z AUTO 00000KT 8SM CLR 19/18 A3021 RMK AO2 SLP228 T01890183
KRWI 210553Z AUTO 00000KT 10SM FEW060 19/18 A3021 RMK AO2 SLP228 T01890183 10244 20189 50001
KRWI 210453Z AUTO 00000KT 10SM CLR 21/19 A3023 RMK AO2 SLP233 T02060189 403000194
KRWI 210353Z AUTO 00000KT 10SM CLR 21/19 A3022 RMK AO2 SLP233 T02110189
KRWI 210253Z AUTO VRB03KT 10SM CLR 22/19 A3021 RMK AO2 SLP228 T02170194 51018
KRWI 210153Z AUTO 11004KT 10SM CLR 23/20 A3020 RMK AO2 SLP226 T02280200
KRWI 210053Z AUTO VRB03KT 10SM CLR 24/21 A3019 RMK AO2 SLP221 T02390206
KRWI 202353Z AUTO 00000KT 10SM CLR 24/21 A3016 RMK AO2 SLP210 T02440211 10300 20233 53005
KRWI 202253Z AUTO 11003KT 10SM CLR 26/21 A3014 RMK AO2 SLP205 T02560211
KRWI 202153Z AUTO 07004KT 10SM CLR 28/21 A3014 RMK AO2 SLP206 T02830206
KRWI 202053Z AUTO 00000KT 10SM SCT060 29/21 A3014 RMK AO2 SLP205 T02890211 56008
KRWI 201953Z AUTO 06004KT 10SM SCT040 BKN047 OVC075 29/21 A3014 RMK AO2 SLP206 T02890206
KRWI 201853Z AUTO 06006KT 10SM BKN036 BKN075 29/21 A3015 RMK AO2 SLP206 T02890211
KRWI 201753Z AUTO 07004KT 10SM FEW032 OVC075 29/21 A3016 RMK AO2 SLP213 T02890211 10289 20217 58006
KRWI 201653Z AUTO 10SM SCT030 BKN034 OVC070 28/21 A3018 RMK AO2 SLP216 T02830211
KRWI 201635Z AUTO 13004KT 10SM BKN028 BKN065 28/21 A3018 RMK AO2 T02780211
KRWI 201553Z AUTO VRB05KT 10SM CLR 28/22 A3018 RMK AO2 SLP219 T02830217
KRWI 201453Z AUTO 00000KT 10SM SCT080 27/22 A3018 RMK AO2 SLP219 T02670217 51018
KRWI 201408Z AUTO 00000KT 7SM FEW009 25/23 A3018 RMK AO2 T02500233
KRWI 201353Z AUTO 00000KT 6SM BR SCT080 24/23 A3018 RMK AO2 SLP217 T02440228
KRWI 201253Z AUTO 00000KT 4SM BR OVC080 23/22 A3015 RMK AO2 SLP209 T02280222
KRWI 201153Z AUTO 00000KT 3SM BR OVC075 22/21 A3013 RMK AO2 SLP201 T02170211 10217 20194 51018
KRWI 201150Z AUTO 00000KT 3SM BR OVC075 22/21 A3013 RMK AO2
KRWI 201140Z AUTO 00000KT 2 1/2SM BR OVC075 21/21 A3012 RMK AO2 T02110211
KRWI 201130Z AUTO 00000KT 1SM BR OVC080 21/21 A3012 RMK AO2 T02060206
KRWI 201104Z AUTO 00000KT 1/4SM FG BKN080 21/21 A3011 RMK AO2 T02060206
KRWI 201053Z AUTO 00000KT 1/2SM FG SCT080 21/21 A3010 RMK AO2 SLP190 T02060206
KRWI 201024Z AUTO 00000KT 1/2SM FG CLR 20/20 A3008 RMK AO2 T02000200
KRWI 200953Z AUTO 00000KT 1/4SM FG CLR 20/20 A3007 RMK AO2 SLP182 T02000200
KRWI 200918Z AUTO 00000KT 3/4SM BR CLR 21/21 A3006 RMK AO2 T02060206
KRWI 200908Z AUTO 00000KT 1/4SM FG CLR 20/20 A3006 RMK AO2 T02000200
KRWI 200853Z AUTO 00000KT 1/4SM FG VV004 20/20 A3005 RMK AO2 SLP174 T02000200 53002
KRWI 200837Z AUTO 00000KT 1/2SM FG CLR 21/21 A3005 RMK AO2 T02060206
KRWI 200834Z AUTO 00000KT 1/4SM FG VV004 21/21 A3005 RMK AO2 T02060206
KRWI 200822Z AUTO 00000KT 1/4SM FG CLR 21/21 A3005 RMK AO2 T02060206
KRWI 200753Z AUTO 00000KT 1/2SM FG SCT090 21/21 A3004 RMK AO2 SLP171 T02110211
KRWI 200749Z AUTO 00000KT 1/2SM FG SCT090 21/21 A3004 RMK AO2
KRWI 200726Z AUTO 00000KT 1 3/4SM BR FEW090 21/21 A3004 RMK AO2 T02060206
KRWI 200718Z AUTO 00000KT 2SM BR CLR 21/21 A3004 RMK AO2 T02060206
KRWI 200710Z AUTO 00000KT 1 1/2SM BR CLR 21/21 A3004 RMK AO2 VIS 3/4V3 T02110211
KRWI 200653Z AUTO 00000KT 3/4SM BR CLR 21/21 A3005 RMK AO2 SLP172 T02110211
KRWI 200650Z AUTO 00000KT 3/4SM BR CLR 21/21 A3004 RMK AO2
KRWI 200640Z AUTO 00000KT 1/4SM FG CLR 21/21 A3004 RMK AO2 T02110211
KRWI 200551Z AUTO 00000KT 3/4SM BR CLR 22/21 A3004 RMK AO2 SLP171 T02170211 10239 20211 51003
KRWI 200550Z AUTO 00000KT 3/4SM BR CLR 22/21 A3004 RMK AO2
KRWI 200506Z AUTO 00000KT 2SM BR CLR 22/22 A3004 RMK AO2 T02170217
KRWI 200453Z AUTO 00000KT 3/4SM BR CLR 22/22 A3004 RMK AO2 SLP171 T02170217 403110200
KRWI 200439Z AUTO 00000KT 3/4SM BR CLR 22/21 A3004 RMK AO2 T02170211
KRWI 200432Z AUTO 00000KT 1SM BR CLR 22/22 A3004 RMK AO2 T02170217
KRWI 200353Z AUTO 00000KT 3/4SM BR CLR 22/22 A3003 RMK AO2 VIS 1/4V4 SLP168 T02170217
KRWI 200350Z AUTO 00000KT 1 1/4SM BR CLR 22/22 A3003 RMK AO2 VIS 1/4V4